createdAt,value
2019-01-14T15:55:14.596Z,79.66
2019-01-14T15:57:44.055Z,79.32
2019-01-14T16:00:15.139Z,78.91
2019-01-14T16:02:44.591Z,78.06
2019-01-14T16:05:14.520Z,77.64
2019-01-14T16:07:43.965Z,77.68
2019-01-14T16:10:16.371Z,76.42
2019-01-14T16:12:45.819Z,76.23
2019-01-14T16:15:15.662Z,75.74
2019-01-14T16:17:45.451Z,75.56
2019-01-14T16:20:16.821Z,75.28
2019-01-14T16:22:46.330Z,74.94
2019-01-14T16:25:15.737Z,75.11
2019-01-14T16:27:45.193Z,75.01
2019-01-14T16:30:19.611Z,75.24
2019-01-14T16:32:49.091Z,75.07
2019-01-14T16:35:18.515Z,74.84
2019-01-14T16:37:47.904Z,75.24
2019-01-14T16:40:18.330Z,75.65
2019-01-14T16:42:48.035Z,75.68
2019-01-14T16:45:22.878Z,75.31
2019-01-14T16:47:52.331Z,75.42
2019-01-14T16:50:21.797Z,75.90
2019-01-14T16:52:51.229Z,75.79
2019-01-14T16:55:32.005Z,75.80
2019-01-14T16:58:01.487Z,75.47
2019-01-14T17:00:31.002Z,75.64
2019-01-14T17:03:00.448Z,75.46
2019-01-14T17:05:29.896Z,76.08
2019-01-14T17:07:59.321Z,76.07
2019-01-14T17:10:28.843Z,75.95
2019-01-14T17:12:58.302Z,76.00
2019-01-14T17:15:27.733Z,76.58
2019-01-14T17:17:57.188Z,76.57
2019-01-14T17:20:26.611Z,76.52
2019-01-14T17:22:56.016Z,76.43
2019-01-14T17:25:25.517Z,76.56
2019-01-14T17:27:55.163Z,76.14
2019-01-14T17:30:24.605Z,76.29
2019-01-14T17:32:54.035Z,76.64
2019-01-14T17:35:23.502Z,76.75
2019-01-14T17:37:52.990Z,76.69
2019-01-14T17:40:22.396Z,76.25
2019-01-14T17:42:51.810Z,76.28
2019-01-14T17:45:21.363Z,76.29
2019-01-14T17:47:50.743Z,75.97
2019-01-14T17:50:20.790Z,76.34
2019-01-14T17:52:50.281Z,76.43
2019-01-14T17:55:19.799Z,76.58
2019-01-14T17:57:49.380Z,76.33
2019-01-14T18:00:20.879Z,74.90
2019-01-14T18:02:50.347Z,75.38
2019-01-14T18:05:19.826Z,74.76
2019-01-14T18:07:49.334Z,74.79
2019-01-14T18:10:19.397Z,75.09
2019-01-14T18:12:48.861Z,74.66
2019-01-14T18:15:18.397Z,74.78
2019-01-14T18:17:47.898Z,74.68
2019-01-14T18:20:19.077Z,75.16
2019-01-14T18:22:48.499Z,74.84
2019-01-14T18:25:18.057Z,74.69
2019-01-14T18:27:47.491Z,74.40
2019-01-14T18:30:18.732Z,74.84
2019-01-14T18:32:48.346Z,74.49
2019-01-14T18:35:17.780Z,74.22
2019-01-14T18:37:47.195Z,74.58
2019-01-14T18:40:18.931Z,74.46
2019-01-14T18:42:48.651Z,74.00
2019-01-14T18:45:19.699Z,72.96
2019-01-14T18:47:49.507Z,73.04
2019-01-14T18:50:21.185Z,73.12
2019-01-14T18:52:50.639Z,73.17
2019-01-14T18:55:20.127Z,73.12
2019-01-14T18:57:50.110Z,73.07
2019-01-14T19:00:23.818Z,73.25
2019-01-14T19:02:53.528Z,74.10
2019-01-14T19:05:22.893Z,74.20
2019-01-14T19:07:52.304Z,74.19
2019-01-14T19:10:21.840Z,74.37
2019-01-14T19:12:51.414Z,74.79
2019-01-14T19:15:21.736Z,75.41
2019-01-14T19:17:52.275Z,75.70
2019-01-14T19:20:29.212Z,75.70
2019-01-14T19:22:58.666Z,75.87
2019-01-14T19:25:28.390Z,75.53
2019-01-14T19:27:57.858Z,76.40
2019-01-14T19:30:27.303Z,75.90
2019-01-14T19:32:56.805Z,75.33
2019-01-14T19:35:26.347Z,74.78
2019-01-14T19:37:55.810Z,74.52
2019-01-14T19:40:25.359Z,73.67
2019-01-14T19:42:54.840Z,74.06
2019-01-14T19:45:24.372Z,74.07
2019-01-14T19:47:53.811Z,74.00
2019-01-14T19:50:24.728Z,73.92
2019-01-14T19:52:55.405Z,74.49
2019-01-14T19:55:25.062Z,74.78
2019-01-14T19:57:54.589Z,75.04
2019-01-14T20:00:26.373Z,74.73
2019-01-14T20:02:55.836Z,75.18
2019-01-14T20:05:25.298Z,75.11
2019-01-14T20:07:55.243Z,74.60
2019-01-14T20:10:24.730Z,74.63
2019-01-14T20:12:54.793Z,74.56
2019-01-14T20:15:24.272Z,73.48
2019-01-14T20:17:53.763Z,73.09
2019-01-14T20:20:23.863Z,71.75
2019-01-14T20:22:53.305Z,72.16
2019-01-14T20:25:22.910Z,72.46
2019-01-14T20:27:52.350Z,72.13
2019-01-14T20:30:23.427Z,72.84
2019-01-14T20:32:53.046Z,73.02
2019-01-14T20:35:22.494Z,72.84
2019-01-14T20:37:52.009Z,73.38
2019-01-14T20:40:21.470Z,73.34
2019-01-14T20:42:50.922Z,73.52
2019-01-14T20:45:20.489Z,73.89
2019-01-14T20:47:50.131Z,74.69
2019-01-14T20:50:20.535Z,74.59
2019-01-14T20:52:49.949Z,75.19
2019-01-14T20:55:19.425Z,75.18
2019-01-14T20:57:48.900Z,75.19
2019-01-14T21:00:24.101Z,75.83
2019-01-14T21:02:53.587Z,75.65
2019-01-14T21:05:24.029Z,76.22
2019-01-14T21:07:53.429Z,75.52
2019-01-14T21:10:22.826Z,74.27
2019-01-14T21:12:52.373Z,74.34
2019-01-14T21:15:21.872Z,73.95
2019-01-14T21:18:35.641Z,73.89
2019-01-14T21:21:47.507Z,73.99
2019-01-14T21:24:15.211Z,74.07
2019-01-14T21:26:51.678Z,73.80
2019-01-14T21:29:26.059Z,74.09
2019-01-14T21:31:52.230Z,73.12
2019-01-14T21:34:30.123Z,73.51
2019-01-14T21:37:18.036Z,73.18
2019-01-14T21:40:05.749Z,73.17
2019-01-14T21:42:36.950Z,73.09
2019-01-14T21:45:23.456Z,72.66
2019-01-14T21:47:51.141Z,72.93
2019-01-14T21:50:18.882Z,72.95
2019-01-14T21:52:48.531Z,73.52
2019-01-14T21:55:20.128Z,73.37
2019-01-14T21:57:49.522Z,73.36
2019-01-14T22:00:20.807Z,73.12
2019-01-14T22:02:50.196Z,74.41
2019-01-14T22:05:19.721Z,73.38
2019-01-14T22:07:49.319Z,73.86
2019-01-14T22:10:23.589Z,74.23
2019-01-14T22:12:52.975Z,74.24
2019-01-14T22:16:22.330Z,74.50
2019-01-14T22:19:36.546Z,74.07
2019-01-14T22:22:51.474Z,74.45
2019-01-14T22:25:56.906Z,74.07
2019-01-14T22:29:02.680Z,75.23
2019-01-14T22:32:15.066Z,74.93
2019-01-14T22:34:44.985Z,75.46
2019-01-14T22:37:14.456Z,75.70
2019-01-14T22:39:44.027Z,76.33
2019-01-14T22:42:13.477Z,76.89
2019-01-14T22:44:43.004Z,76.14
2019-01-14T22:47:12.479Z,76.45
2019-01-14T22:49:41.895Z,76.43
2019-01-14T22:52:11.356Z,76.81
2019-01-14T22:54:40.840Z,77.51
2019-01-14T22:57:10.311Z,77.23
2019-01-14T22:59:39.765Z,77.84
2019-01-14T23:02:09.437Z,78.66
2019-01-14T23:04:38.812Z,78.77
2019-01-14T23:07:08.475Z,78.37
2019-01-14T23:09:37.946Z,79.00
2019-01-14T23:12:07.388Z,79.77
2019-01-14T23:14:36.815Z,80.00
2019-01-14T23:17:06.283Z,81.00
2019-01-14T23:19:35.736Z,81.00
2019-01-14T23:22:05.139Z,81.68
2019-01-14T23:24:34.664Z,81.67
2019-01-14T23:27:04.063Z,81.29
2019-01-14T23:29:33.519Z,80.46
2019-01-14T23:32:02.997Z,79.60
2019-01-14T23:34:32.449Z,79.45
2019-01-14T23:37:01.826Z,77.69
2019-01-14T23:39:31.248Z,77.63
2019-01-14T23:42:00.796Z,75.29
2019-01-14T23:44:30.184Z,74.88
2019-01-14T23:46:59.697Z,73.21
2019-01-14T23:49:29.180Z,72.15
2019-01-14T23:51:58.547Z,71.09
2019-01-14T23:54:27.993Z,71.24
2019-01-14T23:56:57.474Z,70.90
2019-01-14T23:59:26.914Z,69.39
